Time;durP1;ratioP1;P1;durP2;ratioP2;P2;SDS_P1;SDS_P2;PMS_P1;PMS_P2;Temp;Humidity;BMP_temperature;BMP_pressure;BME280_temperature;BME280_humidity;BME280_pressure;Samples;Min_cycle;Max_cycle;Signal;HPM_P1;HPM_P2
2023/03/06 00:01:56;;;;;;;1.15;1.00;;;;;;;6.51;50.22;99340.41;4388466;32;33709;-90
2023/03/06 00:04:35;;;;;;;0.85;0.77;;;;;;;6.53;50.01;99344.69;4407621;32;32278;-92
2023/03/06 00:07:15;;;;;;;0.00;0.00;;;;;;;6.56;49.92;99346.34;4348229;32;33787;-94
2023/03/06 00:10:07;;;;;;;1.57;1.07;;;;;;;6.63;49.72;99345.22;4417489;32;34539;-92
2023/03/06 00:12:47;;;;;;;0.10;0.10;;;;;;;6.89;48.62;99342.53;4357161;32;32745;-94
2023/03/06 00:15:38;;;;;;;1.10;1.10;;;;;;;6.65;49.13;99336.38;4396714;32;32453;-93
2023/03/06 00:18:18;;;;;;;1.25;1.17;;;;;;;6.61;49.56;99332.16;4422760;32;32398;-93
2023/03/06 00:21:09;;;;;;;0.20;0.20;;;;;;;6.70;49.56;99335.38;4391050;32;32641;-93
2023/03/06 00:23:49;;;;;;;0.10;0.10;;;;;;;6.78;49.05;99331.53;4407665;32;32495;-92
2023/03/06 00:26:18;;;;;;;0.40;0.40;;;;;;;6.48;50.34;99340.50;4401115;32;32156;-91
2023/03/06 00:28:46;;;;;;;0.70;0.70;;;;;;;6.90;49.13;99333.75;4418003;32;32741;-93
2023/03/06 00:31:38;;;;;;;0.73;0.65;;;;;;;6.59;50.20;99327.84;4343718;33;33448;-90
2023/03/06 00:34:18;;;;;;;1.02;1.02;;;;;;;6.46;50.80;99330.06;4345972;33;32993;-90
2023/03/06 00:36:46;;;;;;;0.32;0.32;;;;;;;6.41;51.08;99321.50;4350823;32;32123;-92
2023/03/06 00:39:14;;;;;;;1.23;1.23;;;;;;;6.44;50.90;99318.75;4356786;32;32761;-91
2023/03/06 00:41:42;;;;;;;0.52;0.52;;;;;;;6.54;50.86;99321.91;4349078;32;34446;-90
2023/03/06 00:44:13;;;;;;;0.80;0.75;;;;;;;6.47;50.97;99316.03;4344140;33;33785;-90
2023/03/06 00:46:41;;;;;;;0.20;0.20;;;;;;;6.59;50.80;99318.22;4332542;33;32709;-92
2023/03/06 00:49:36;;;;;;;0.75;0.57;;;;;;;6.64;50.44;99326.78;4370269;32;33444;-91
2023/03/06 00:52:22;;;;;;;0.10;0.10;;;;;;;6.71;50.45;99316.94;4406299;32;32851;-90
2023/03/06 00:54:51;;;;;;;0.82;0.82;;;;;;;6.97;49.39;99317.75;4406680;32;32913;-91
2023/03/06 00:57:18;;;;;;;1.33;1.23;;;;;;;7.02;48.98;99311.44;4412859;32;31954;-90
2023/03/06 00:59:46;;;;;;;6.85;1.77;;;;;;;6.92;49.60;99304.81;4385233;32;33268;-90
2023/03/06 01:02:18;;;;;;;0.20;0.20;;;;;;;6.94;49.41;99305.63;4398586;32;33584;-91
2023/03/06 01:04:48;;;;;;;0.82;0.82;;;;;;;6.70;50.21;99296.03;4411517;32;32546;-90
2023/03/06 01:07:37;;;;;;;0.40;0.40;;;;;;;6.82;49.47;99292.94;4403360;32;32348;-91
2023/03/06 01:10:06;;;;;;;3.20;0.88;;;;;;;6.73;49.59;99299.37;4417612;32;32532;-90
2023/03/06 01:12:53;;;;;;;4.72;1.15;;;;;;;6.68;49.64;99290.81;4403291;32;32460;-90
2023/03/06 01:15:21;;;;;;;8.45;1.58;;;;;;;6.46;50.43;99297.72;4390837;32;32779;-90
2023/03/06 01:18:23;;;;;;;1.15;0.95;;;;;;;6.44;50.75;99296.94;4405480;32;32482;-90
2023/03/06 01:20:50;;;;;;;4.75;2.75;;;;;;;6.67;49.89;99294.34;4409076;32;32996;-90
2023/03/06 01:23:19;;;;;;;0.20;0.20;;;;;;;6.89;48.49;99283.94;4415385;32;33517;-89
2023/03/06 01:25:46;;;;;;;0.28;0.28;;;;;;;6.77;48.76;99279.97;4403705;32;33641;-91
2023/03/06 01:28:43;;;;;;;0.68;0.68;;;;;;;6.84;48.82;99281.50;4432021;32;32579;-90
2023/03/06 01:31:32;;;;;;;0.62;0.62;;;;;;;6.85;48.88;99279.72;4410567;32;32574;-92
2023/03/06 01:34:26;;;;;;;1.17;0.57;;;;;;;6.91;49.37;99276.84;4416417;32;34533;-92
2023/03/06 01:37:11;;;;;;;0.85;0.85;;;;;;;6.77;49.35;99273.88;4396044;32;34428;-92
2023/03/06 01:40:04;;;;;;;;;;;;;;;6.80;48.83;99272.00;4384953;32;32484;-90
2023/03/06 01:42:51;;;;;;;0.10;0.10;;;;;;;6.14;49.46;99269.09;4381787;32;34426;-92
2023/03/06 01:45:49;;;;;;;0.28;0.28;;;;;;;6.40;48.68;99270.81;4422858;32;32730;-92
2023/03/06 01:48:29;;;;;;;0.77;0.45;;;;;;;6.13;49.46;99277.03;4400847;32;32751;-92
2023/03/06 01:51:23;;;;;;;0.10;0.10;;;;;;;6.60;47.86;99271.88;4416330;32;32320;-92
2023/03/06 01:54:08;;;;;;;0.45;0.45;;;;;;;6.69;47.39;99263.66;4384550;32;32539;-92
2023/03/06 01:57:17;;;;;;;3.75;2.85;;;;;;;6.55;47.98;99271.16;4395326;32;32892;-92
2023/03/06 02:00:10;;;;;;;0.30;0.30;;;;;;;6.53;48.22;99270.37;4377797;32;33727;-90
2023/03/06 02:02:41;;;;;;;0.00;0.00;;;;;;;6.52;48.14;99266.91;4379991;32;32574;-91
2023/03/06 02:05:09;;;;;;;0.00;0.00;;;;;;;6.52;48.72;99279.16;4355411;32;33018;-90
2023/03/06 02:07:37;;;;;;;0.00;0.00;;;;;;;6.53;48.83;99268.59;4381142;32;33840;-91
2023/03/06 02:10:32;;;;;;;1.85;1.12;;;;;;;6.57;48.86;99272.00;4396374;32;32911;-91
2023/03/06 02:13:00;;;;;;;0.40;0.40;;;;;;;6.78;48.05;99268.56;4385736;32;33125;-90
2023/03/06 02:15:30;;;;;;;0.95;0.95;;;;;;;7.01;48.14;99261.63;4384376;32;33648;-89
2023/03/06 02:17:59;;;;;;;0.30;0.30;;;;;;;6.66;49.20;99262.00;4384632;32;33602;-90
2023/03/06 02:20:43;;;;;;;0.22;0.22;;;;;;;6.54;50.12;99266.84;4385072;32;33954;-89
2023/03/06 02:23:24;;;;;;;0.20;0.20;;;;;;;6.71;49.93;99271.50;4384101;32;32269;-91
2023/03/06 02:26:03;;;;;;;0.22;0.22;;;;;;;6.64;49.91;99268.22;4402047;32;33295;-90
2023/03/06 02:28:34;;;;;;;0.03;0.03;;;;;;;6.72;49.67;99266.19;4387671;32;32753;-91
2023/03/06 02:31:04;;;;;;;3.50;1.37;;;;;;;6.73;49.52;99267.88;4375895;32;33928;-90
2023/03/06 02:34:07;;;;;;;0.43;0.40;;;;;;;6.76;49.57;99257.28;4397496;32;31659;-92
2023/03/06 02:37:08;;;;;;;0.35;0.35;;;;;;;6.73;49.42;99265.25;4383560;32;31964;-92
2023/03/06 02:39:41;;;;;;;0.00;0.00;;;;;;;6.75;49.27;99255.59;4384437;32;32477;-91
2023/03/06 02:42:16;;;;;;;0.13;0.13;;;;;;;6.85;49.13;99262.19;4374692;32;32317;-90
2023/03/06 02:44:44;;;;;;;0.62;0.62;;;;;;;6.66;50.25;99262.00;4381944;32;33066;-90
2023/03/06 02:47:12;;;;;;;0.70;0.70;;;;;;;7.05;48.95;99263.22;4383750;32;34600;-90
2023/03/06 02:49:40;;;;;;;0.15;0.15;;;;;;;6.80;49.50;99268.53;4384036;32;33277;-89
2023/03/06 02:52:08;;;;;;;0.65;0.65;;;;;;;7.20;48.01;99262.63;4372799;32;33638;-90
2023/03/06 02:54:38;;;;;;;0.25;0.25;;;;;;;6.86;48.74;99268.31;4373120;32;33464;-90
2023/03/06 02:57:07;;;;;;;0.77;0.77;;;;;;;6.89;49.24;99268.19;4384727;32;32288;-89
2023/03/06 02:59:35;;;;;;;0.20;0.20;;;;;;;6.70;49.78;99267.16;4382685;32;33793;-89
2023/03/06 03:02:04;;;;;;;0.43;0.22;;;;;;;6.74;49.80;99264.38;4381776;32;32723;-89
2023/03/06 03:04:33;;;;;;;0.47;0.47;;;;;;;6.76;49.76;99259.06;4383752;32;33093;-90
2023/03/06 03:07:01;;;;;;;0.35;0.35;;;;;;;6.76;49.58;99262.53;4373923;32;33309;-90
2023/03/06 03:09:35;;;;;;;1.65;1.35;;;;;;;6.75;49.90;99259.97;4383815;32;33596;-90
2023/03/06 03:12:05;;;;;;;0.80;0.80;;;;;;;6.85;49.54;99254.31;4383738;32;32680;-89
2023/03/06 03:14:33;;;;;;;3.60;1.12;;;;;;;6.87;49.36;99256.88;4382502;32;33039;-89
2023/03/06 03:17:01;;;;;;;0.65;0.65;;;;;;;6.84;49.24;99260.50;4385058;32;32931;-88
2023/03/06 03:19:29;;;;;;;0.00;0.00;;;;;;;7.20;48.20;99252.13;4382040;32;33783;-89
2023/03/06 03:21:57;;;;;;;0.10;0.10;;;;;;;7.16;48.00;99254.00;4384228;32;33195;-91
2023/03/06 03:24:25;;;;;;;0.73;0.70;;;;;;;6.90;49.27;99248.91;4369447;32;33845;-90
2023/03/06 03:26:53;;;;;;;0.10;0.10;;;;;;;6.74;49.78;99253.87;4383414;32;33806;-90
2023/03/06 03:29:21;;;;;;;0.32;0.32;;;;;;;6.70;49.90;99257.53;4381222;32;33913;-89
2023/03/06 03:31:49;;;;;;;0.00;0.00;;;;;;;6.66;50.11;99255.91;4381875;32;33106;-88
2023/03/06 03:34:17;;;;;;;0.80;0.80;;;;;;;7.03;49.30;99257.19;4375303;32;33443;-88
2023/03/06 03:36:46;;;;;;;0.65;0.65;;;;;;;6.70;49.98;99249.66;4389152;32;33270;-89
2023/03/06 03:39:13;;;;;;;0.05;0.05;;;;;;;6.71;49.86;99248.72;4379538;32;33958;-89
2023/03/06 03:41:42;;;;;;;1.17;1.17;;;;;;;6.85;49.46;99240.34;4377149;32;34415;-89
2023/03/06 03:44:10;;;;;;;0.03;0.03;;;;;;;6.65;50.17;99244.56;4377272;32;32878;-90
2023/03/06 03:46:38;;;;;;;0.10;0.10;;;;;;;6.59;50.53;99238.69;4382052;32;34335;-90
2023/03/06 03:49:07;;;;;;;0.30;0.28;;;;;;;6.72;50.22;99237.31;4385019;32;33229;-89
2023/03/06 03:51:35;;;;;;;0.77;0.77;;;;;;;6.68;50.18;99235.72;4383655;32;33647;-89
2023/03/06 03:54:04;;;;;;;0.03;0.03;;;;;;;6.73;49.99;99241.66;4376805;32;32533;-89
2023/03/06 03:56:34;;;;;;;0.22;0.22;;;;;;;6.87;49.86;99233.25;4371528;32;32998;-90
2023/03/06 04:02:05;;;;;;;0.30;0.30;;;;;;;7.01;49.03;99240.63;4372027;32;33869;-90
2023/03/06 04:04:34;;;;;;;0.08;0.08;;;;;;;6.96;48.70;99239.94;4377747;32;34266;-93
2023/03/06 04:07:27;;;;;;;0.00;0.00;;;;;;;6.83;49.44;99237.75;4404097;32;33497;-92
2023/03/06 04:10:19;;;;;;;0.80;0.80;;;;;;;6.75;50.50;99239.84;4388053;32;32865;-92
2023/03/06 04:13:10;;;;;;;0.15;0.15;;;;;;;6.72;50.76;99234.69;4390822;32;32439;-93
2023/03/06 04:16:02;;;;;;;0.10;0.10;;;;;;;6.97;49.56;99239.87;4401338;32;32600;-92
2023/03/06 04:18:53;;;;;;;0.20;0.20;;;;;;;6.75;50.69;99252.09;4418978;32;32801;-92
2023/03/06 04:21:44;;;;;;;0.77;0.77;;;;;;;6.88;49.34;99246.34;4366002;32;34479;-92
2023/03/06 04:24:35;;;;;;;2.15;1.67;;;;;;;6.66;50.47;99250.66;4380745;32;33118;-93
2023/03/06 04:27:27;;;;;;;0.00;0.00;;;;;;;6.61;50.34;99247.37;4393409;32;32411;-92
2023/03/06 04:30:18;;;;;;;0.22;0.22;;;;;;;6.60;51.04;99243.88;4364856;32;33033;-88
2023/03/06 04:32:46;;;;;;;0.75;0.30;;;;;;;6.89;49.56;99237.56;4380173;32;34075;-89
2023/03/06 04:35:14;;;;;;;1.08;1.08;;;;;;;6.77;50.20;99240.63;4369266;32;32571;-89
2023/03/06 04:37:43;;;;;;;1.08;0.68;;;;;;;6.88;49.93;99237.59;4379400;32;32577;-89
2023/03/06 04:40:16;;;;;;;0.00;0.00;;;;;;;6.78;50.52;99241.47;4396570;32;33208;-88
2023/03/06 04:42:44;;;;;;;0.03;0.03;;;;;;;6.81;50.98;99239.59;4358460;32;33012;-88
2023/03/06 04:45:12;;;;;;;0.20;0.20;;;;;;;6.74;51.50;99226.75;4384851;32;33729;-88
2023/03/06 04:47:40;;;;;;;0.30;0.30;;;;;;;6.88;50.63;99235.84;4371417;32;33251;-88
2023/03/06 04:50:09;;;;;;;0.00;0.00;;;;;;;6.63;51.65;99235.03;4381356;32;33664;-88
2023/03/06 04:52:39;;;;;;;0.77;0.77;;;;;;;6.54;51.87;99238.00;4372386;32;32983;-88
2023/03/06 04:55:09;;;;;;;1.20;1.10;;;;;;;6.89;50.76;99226.22;4372337;32;32928;-88
2023/03/06 04:57:39;;;;;;;0.37;0.37;;;;;;;7.03;50.36;99225.69;4383558;32;33359;-90
2023/03/06 05:00:10;;;;;;;0.73;0.73;;;;;;;6.85;50.48;99230.72;4371798;32;32396;-90
2023/03/06 05:02:41;;;;;;;0.70;0.70;;;;;;;6.68;51.32;99228.69;4371704;32;33188;-90
2023/03/06 05:05:09;;;;;;;12.68;2.08;;;;;;;6.81;51.40;99230.87;4370401;32;33217;-90
2023/03/06 05:07:38;;;;;;;0.98;0.98;;;;;;;6.77;51.14;99227.50;4359981;32;32150;-90
2023/03/06 05:10:06;;;;;;;1.33;0.85;;;;;;;6.70;51.41;99233.91;4383877;32;33087;-90
2023/03/06 05:12:36;;;;;;;1.30;1.30;;;;;;;6.67;51.54;99241.88;4368302;32;33159;-90
2023/03/06 05:15:04;;;;;;;0.68;0.68;;;;;;;6.64;51.81;99231.50;4382252;32;34010;-91
2023/03/06 05:17:32;;;;;;;0.22;0.22;;;;;;;6.67;51.62;99237.50;4359506;32;32684;-90
2023/03/06 05:20:00;;;;;;;3.30;2.65;;;;;;;6.66;51.80;99230.53;4357294;32;32898;-90
2023/03/06 05:22:27;;;;;;;1.37;1.30;;;;;;;6.81;51.68;99231.72;4367620;32;33136;-89
2023/03/06 05:24:55;;;;;;;2.05;1.65;;;;;;;6.80;51.46;99232.66;4369658;32;32920;-90
2023/03/06 05:27:23;;;;;;;3.08;2.62;;;;;;;6.78;51.82;99233.59;4382561;32;31835;-90
2023/03/06 05:29:50;;;;;;;2.83;2.62;;;;;;;6.82;51.62;99229.97;4382726;32;32859;-92
2023/03/06 05:32:20;;;;;;;0.25;0.25;;;;;;;6.83;51.57;99222.03;4363548;32;32927;-89
2023/03/06 05:34:48;;;;;;;1.95;1.87;;;;;;;6.93;51.48;99233.91;4387100;32;33375;-90
2023/03/06 05:40:11;;;;;;;0.88;0.88;;;;;;;6.79;51.77;99233.56;4375320;32;34671;-91
2023/03/06 05:42:38;;;;;;;1.85;0.70;;;;;;;6.75;51.78;99231.97;4381698;32;33474;-88
2023/03/06 05:45:07;;;;;;;2.05;1.50;;;;;;;6.91;51.05;99225.22;4350749;32;32360;-88
2023/03/06 05:47:35;;;;;;;2.67;2.50;;;;;;;6.84;51.38;99236.88;4379746;32;33709;-88
2023/03/06 05:50:03;;;;;;;0.40;0.40;;;;;;;6.76;51.83;99224.94;4355738;32;33012;-87
2023/03/06 05:52:31;;;;;;;1.30;1.25;;;;;;;6.84;51.54;99231.63;4368870;32;33014;-89
2023/03/06 05:54:59;;;;;;;6.90;4.32;;;;;;;6.93;51.28;99235.66;4362924;32;33547;-92
2023/03/06 05:57:39;;;;;;;1.85;1.75;;;;;;;6.92;51.22;99236.56;4377130;32;32365;-92
2023/03/06 06:00:27;;;;;;;3.40;1.42;;;;;;;6.88;51.48;99241.09;4365975;32;33066;-89
2023/03/06 06:02:55;;;;;;;1.12;1.08;;;;;;;7.24;50.04;99231.87;4362025;32;33542;-88
2023/03/06 06:05:23;;;;;;;0.30;0.30;;;;;;;7.00;50.52;99234.53;4365706;32;33830;-88
2023/03/06 06:07:50;;;;;;;0.22;0.22;;;;;;;6.89;51.35;99231.47;4351752;32;32128;-88
2023/03/06 06:10:18;;;;;;;4.07;1.17;;;;;;;7.21;50.27;99235.44;4374924;32;33371;-87
2023/03/06 06:12:46;;;;;;;1.17;1.15;;;;;;;7.19;50.27;99226.78;4368663;32;34598;-91
2023/03/06 06:15:40;;;;;;;0.85;0.75;;;;;;;6.97;51.14;99233.78;4387931;32;32256;-95
2023/03/06 06:21:38;;;;;;;0.70;0.70;;;;;;;6.77;52.61;99252.91;4396066;32;35448;-94
2023/03/06 06:24:30;;;;;;;0.50;0.50;;;;;;;6.97;52.30;99250.38;4392284;32;33035;-92
2023/03/06 06:27:10;;;;;;;0.57;0.57;;;;;;;6.87;54.41;99249.88;4371990;32;33164;-95
2023/03/06 06:30:05;;;;;;;1.75;1.65;;;;;;;6.74;54.39;99253.00;4402096;32;33925;-93
2023/03/06 06:32:53;;;;;;;2.95;2.75;;;;;;;6.82;54.38;99256.19;4381499;32;32714;-93
2023/03/06 06:35:46;;;;;;;1.85;1.75;;;;;;;6.97;53.43;99254.78;4351356;32;32789;-91
2023/03/06 06:38:14;;;;;;;0.77;0.77;;;;;;;7.06;52.78;99254.41;4362226;32;32708;-91
2023/03/06 06:41:19;;;;;;;1.17;0.85;;;;;;;7.32;51.05;99251.66;4394913;32;32228;-93
2023/03/06 06:43:59;;;;;;;0.47;0.47;;;;;;;7.26;51.70;99246.63;4374042;32;33057;-92
2023/03/06 06:46:50;;;;;;;0.53;0.53;;;;;;;7.26;51.29;99249.25;4401813;32;33639;-94
2023/03/06 06:49:32;;;;;;;5.57;1.58;;;;;;;7.31;50.71;99244.72;4418000;32;33754;-90
2023/03/06 06:52:23;;;;;;;1.45;1.20;;;;;;;7.18;51.07;99244.31;4408585;32;32254;-93
2023/03/06 06:54:51;;;;;;;0.40;0.40;;;;;;;7.15;51.47;99241.81;4404052;32;32675;-93
2023/03/06 06:57:35;;;;;;;3.12;1.87;;;;;;;7.44;49.31;99245.91;4367488;32;32447;-93
2023/03/06 07:00:14;;;;;;;0.60;0.60;;;;;;;7.29;49.96;99254.41;4398263;32;33636;-93
2023/03/06 07:03:06;;;;;;;0.43;0.43;;;;;;;7.06;51.66;99259.66;4396751;32;32950;-93
2023/03/06 07:05:42;;;;;;;0.55;0.55;;;;;;;7.14;51.15;99252.38;4406373;32;33830;-92
2023/03/06 07:08:54;;;;;;;0.13;0.13;;;;;;;7.39;50.46;99257.50;4406714;32;32989;-92
2023/03/06 07:11:37;;;;;;;0.47;0.47;;;;;;;7.66;48.92;99250.31;4382937;32;32671;-94
2023/03/06 07:14:28;;;;;;;0.40;0.40;;;;;;;7.64;48.77;99246.87;4363168;32;32498;-92
2023/03/06 07:17:08;;;;;;;1.65;1.05;;;;;;;7.59;48.74;99251.47;4378377;32;32634;-93
2023/03/06 07:20:09;;;;;;;0.93;0.88;;;;;;;7.44;49.60;99263.44;4406175;32;32944;-92
2023/03/06 07:22:48;;;;;;;0.43;0.43;;;;;;;7.49;49.60;99258.00;4385965;32;33426;-90
2023/03/06 07:25:36;;;;;;;1.00;0.90;;;;;;;7.38;49.83;99269.78;4383656;32;33207;-91
2023/03/06 07:28:15;;;;;;;6.15;4.37;;;;;;;7.11;51.13;99271.72;4392647;32;32666;-91
2023/03/06 07:31:08;;;;;;;1.90;1.07;;;;;;;7.35;50.75;99261.16;4383113;32;32568;-93
2023/03/06 07:33:49;;;;;;;0.08;0.08;;;;;;;7.46;49.69;99263.41;4397579;32;32627;-93
2023/03/06 07:36:40;;;;;;;2.40;1.90;;;;;;;7.34;50.46;99269.97;4374156;32;32227;-93
2023/03/06 07:39:20;;;;;;;1.58;1.48;;;;;;;7.50;50.17;99264.97;4388815;32;32800;-93
2023/03/06 07:42:14;;;;;;;0.28;0.28;;;;;;;7.31;50.92;99270.97;4427028;32;33762;-93
2023/03/06 07:45:07;;;;;;;0.77;0.55;;;;;;;7.29;51.53;99270.16;4426598;32;33419;-93
2023/03/06 07:47:58;;;;;;;0.50;0.50;;;;;;;7.76;49.61;99261.31;4378977;32;32071;-94
2023/03/06 07:50:38;;;;;;;2.45;1.12;;;;;;;7.50;50.77;99272.84;4388265;32;32781;-93
2023/03/06 07:53:30;;;;;;;2.17;2.07;;;;;;;7.74;49.94;99268.38;4373409;32;34284;-91
2023/03/06 07:56:10;;;;;;;2.22;1.27;;;;;;;7.80;50.12;99268.16;4409968;32;33084;-93
2023/03/06 07:59:02;;;;;;;0.00;0.00;;;;;;;8.12;48.77;99272.94;4397286;32;32099;-93
2023/03/06 08:01:42;;;;;;;0.20;0.20;;;;;;;8.01;48.63;99272.50;4417147;32;32465;-94
2023/03/06 08:04:33;;;;;;;0.10;0.10;;;;;;;7.77;49.89;99273.53;4392828;32;32588;-94
2023/03/06 08:07:12;;;;;;;0.60;0.60;;;;;;;7.51;50.75;99287.72;4396068;32;33595;-93
2023/03/06 08:13:35;;;;;;;2.12;2.00;;;;;;;7.63;50.62;99292.47;4425405;32;34644;-93
2023/03/06 08:16:28;;;;;;;1.10;0.98;;;;;;;7.59;50.25;99281.22;4387663;32;33897;-95
2023/03/06 08:19:07;;;;;;;0.08;0.08;;;;;;;7.85;50.04;99282.81;4368980;32;32994;-95
2023/03/06 08:25:29;;;;;;;0.20;0.20;;;;;;;7.99;48.73;99273.50;4394964;32;34787;-94
2023/03/06 08:28:20;;;;;;;0.40;0.40;;;;;;;7.82;49.42;99272.41;4412060;32;32860;-93
2023/03/06 08:31:10;;;;;;;2.15;0.93;;;;;;;7.77;49.76;99269.13;4418054;32;33652;-94
2023/03/06 08:37:32;;;;;;;2.67;1.30;;;;;;;7.88;48.88;99260.78;4425221;32;34641;-94
2023/03/06 08:43:54;;;;;;;0.08;0.08;;;;;;;7.85;50.00;99261.78;4409711;32;34708;-95
2023/03/06 08:46:45;;;;;;;1.45;0.75;;;;;;;7.98;49.56;99262.13;4401094;32;32436;-93
2023/03/06 08:49:24;;;;;;;0.10;0.10;;;;;;;7.84;49.92;99260.06;4393088;32;33042;-95
2023/03/06 08:52:15;;;;;;;0.05;0.05;;;;;;;7.92;49.37;99254.50;4397620;32;32813;-93
2023/03/06 08:54:56;;;;;;;0.10;0.10;;;;;;;7.74;50.12;99253.50;4395371;32;33550;-93
2023/03/06 08:57:48;;;;;;;2.40;2.20;;;;;;;7.88;49.09;99255.53;4406539;32;32095;-93
2023/03/06 09:00:28;;;;;;;1.35;0.95;;;;;;;7.53;51.89;99254.34;4405106;32;33570;-93
2023/03/06 09:03:18;;;;;;;0.32;0.32;;;;;;;7.91;50.02;99245.75;4381561;32;34375;-93
2023/03/06 09:06:10;;;;;;;0.35;0.35;;;;;;;7.79;50.47;99246.28;4386874;32;34666;-94
2023/03/06 09:09:02;;;;;;;0.20;0.20;;;;;;;8.31;48.99;99237.94;4397181;32;33145;-94
2023/03/06 09:11:41;;;;;;;0.10;0.10;;;;;;;8.60;48.03;99228.81;4406513;32;32982;-94
2023/03/06 09:14:32;;;;;;;0.40;0.37;;;;;;;8.49;48.22;99231.06;4355348;32;32911;-93
2023/03/06 09:17:12;;;;;;;0.52;0.52;;;;;;;8.64;47.62;99227.72;4363690;32;32999;-95
2023/03/06 09:23:34;;;;;;;0.52;0.52;;;;;;;8.27;47.94;99225.88;4380245;32;34673;-94
2023/03/06 09:26:25;;;;;;;0.60;0.60;;;;;;;8.47;48.75;99220.59;4393851;32;33248;-95
2023/03/06 09:29:11;;;;;;;0.10;0.10;;;;;;;8.00;49.27;99227.88;4397858;32;33145;-96
2023/03/06 09:31:52;;;;;;;1.30;1.20;;;;;;;8.08;50.25;99226.66;4391865;32;32432;-95
2023/03/06 09:34:32;;;;;;;0.52;0.52;;;;;;;8.13;51.23;99219.41;4427198;32;33676;-89
2023/03/06 09:37:16;;;;;;;0.68;0.68;;;;;;;8.39;48.68;99220.06;4405291;32;33378;-94
2023/03/06 09:39:56;;;;;;;0.15;0.15;;;;;;;8.57;47.52;99214.00;4367417;32;33665;-96
2023/03/06 09:42:32;;;;;;;0.62;0.62;;;;;;;8.62;47.27;99214.66;4383768;32;32121;-95
2023/03/06 09:45:06;;;;;;;0.45;0.45;;;;;;;8.62;47.58;99212.03;4379923;32;33320;-95
2023/03/06 09:48:03;;;;;;;1.80;1.10;;;;;;;8.18;47.82;99203.44;4400826;32;33105;-93
2023/03/06 09:50:45;;;;;;;1.17;1.17;;;;;;;8.56;47.70;99203.56;4387633;32;33028;-94
2023/03/06 09:53:44;;;;;;;0.52;0.52;;;;;;;8.77;46.61;99207.84;4367999;32;32961;-96
2023/03/06 09:56:30;;;;;;;0.10;0.10;;;;;;;8.95;46.62;99203.50;4387580;32;32779;-96
2023/03/06 09:59:25;;;;;;;0.70;0.62;;;;;;;8.91;46.56;99202.78;4399846;32;35585;-94
2023/03/06 10:02:19;;;;;;;1.00;0.70;;;;;;;8.78;46.78;99196.38;4395655;32;32657;-96
2023/03/06 10:05:23;;;;;;;0.45;0.45;;;;;;;8.73;47.71;99195.72;4396223;32;32019;-96
2023/03/06 10:08:06;;;;;;;1.58;0.70;;;;;;;8.69;47.23;99191.56;4366648;32;31997;-96
2023/03/06 10:11:02;;;;;;;1.25;0.95;;;;;;;8.71;45.70;99189.69;4387043;32;32703;-96
2023/03/06 10:13:48;;;;;;;1.37;1.17;;;;;;;9.13;45.98;99186.00;4394629;32;33494;-94
2023/03/06 10:16:40;;;;;;;0.55;0.55;;;;;;;8.71;45.86;99194.97;4382906;32;32201;-96
2023/03/06 10:19:20;;;;;;;1.23;1.15;;;;;;;8.58;45.78;99199.06;4378042;32;33951;-96
2023/03/06 10:22:35;;;;;;;0.23;0.23;;;;;;;8.89;44.76;99188.84;4405618;32;33632;-95
2023/03/06 10:26:00;;;;;;;1.05;1.00;;;;;;;8.75;44.99;99195.69;4378134;32;32150;-96
2023/03/06 10:29:05;;;;;;;1.92;0.82;;;;;;;8.54;45.53;99187.81;4390077;32;32530;-94
2023/03/06 10:31:51;;;;;;;0.22;0.22;;;;;;;8.92;45.05;99195.75;4395926;32;33776;-95
2023/03/06 10:34:42;;;;;;;1.85;1.02;;;;;;;8.68;45.75;99187.19;4395163;32;33061;-94
2023/03/06 10:41:06;;;;;;;0.85;0.85;;;;;;;9.20;44.34;99184.75;4441726;32;34226;-94
2023/03/06 10:44:03;;;;;;;1.10;1.10;;;;;;;8.92;45.01;99182.56;4441172;32;32702;-94
2023/03/06 10:46:45;;;;;;;0.00;0.00;;;;;;;8.64;45.23;99167.19;4421525;32;32935;-94
2023/03/06 10:49:36;;;;;;;0.62;0.62;;;;;;;9.01;44.92;99161.06;4381648;32;32769;-95
2023/03/06 10:52:15;;;;;;;1.23;0.82;;;;;;;8.90;44.44;99155.47;4397056;32;32693;-94
2023/03/06 10:55:21;;;;;;;2.05;1.40;;;;;;;8.58;45.33;99162.22;4387798;32;32339;-94
2023/03/06 11:36:27;;;;;;;2.35;1.25;;;;;;;9.55;45.35;99042.53;4460748;32;195583;-85
2023/03/06 11:39:03;;;;;;;1.48;1.37;;;;;;;9.55;45.35;99042.53;4439938;32;32876;-84
2023/03/06 11:41:48;;;;;;;0.65;0.55;;;;;;;9.38;43.93;99033.69;4434685;32;32920;-85
2023/03/06 11:44:35;;;;;;;0.57;0.57;;;;;;;9.45;44.21;99024.56;4445177;32;35124;-82
2023/03/06 11:47:11;;;;;;;0.37;0.37;;;;;;;9.85;43.05;99022.47;4455212;32;33541;-82
2023/03/06 11:50:20;;;;;;;0.82;0.77;;;;;;;9.78;43.05;99026.37;4442202;32;32287;-83
2023/03/06 11:52:52;;;;;;;3.20;1.20;;;;;;;9.71;44.02;99015.28;4442736;32;32610;-83
2023/03/06 11:55:33;;;;;;;2.47;0.93;;;;;;;9.79;42.76;99012.25;4424387;32;32208;-81
2023/03/06 11:58:16;;;;;;;0.52;0.52;;;;;;;9.80;43.36;99010.47;4453830;32;34131;-84
2023/03/06 12:00:52;;;;;;;0.22;0.22;;;;;;;10.27;41.96;99007.09;4443953;32;32392;-84
2023/03/06 12:03:36;;;;;;;1.17;1.12;;;;;;;9.71;43.22;99003.88;4451825;32;33979;-83
2023/03/06 12:06:26;;;;;;;0.50;0.35;;;;;;;9.60;43.82;98995.69;4437065;32;32771;-83
2023/03/06 12:09:13;;;;;;;0.32;0.32;;;;;;;9.74;43.03;98996.69;4427080;32;32699;-83
2023/03/06 12:11:51;;;;;;;0.30;0.30;;;;;;;9.80;42.94;98992.84;4457587;32;33031;-83
2023/03/06 12:14:58;;;;;;;2.30;1.55;;;;;;;9.65;43.13;98988.41;4447170;32;32643;-83
2023/03/06 12:17:45;;;;;;;1.90;0.52;;;;;;;9.79;42.84;98974.50;4437459;32;32941;-84
2023/03/06 12:20:34;;;;;;;0.70;0.70;;;;;;;9.73;43.07;98988.81;4428880;32;32863;-82
2023/03/06 12:23:19;;;;;;;1.80;1.65;;;;;;;9.70;42.95;98986.38;4437559;32;32564;-83
2023/03/06 12:26:09;;;;;;;1.20;1.00;;;;;;;9.48;43.97;98979.59;4436652;32;32136;-91
2023/03/06 12:29:32;;;;;;;0.10;0.10;;;;;;;10.06;42.89;98972.13;4399780;32;32652;-92
2023/03/06 12:32:48;;;;;;;0.65;0.65;;;;;;;10.17;42.29;98969.78;4372950;32;32556;-90
2023/03/06 12:35:57;;;;;;;3.62;1.87;;;;;;;10.08;41.38;98970.28;4380577;32;33000;-91
2023/03/06 12:41:54;;;;;;;0.32;0.32;;;;;;;10.16;40.80;98962.75;4387441;32;33306;-91
2023/03/06 12:44:46;;;;;;;0.88;0.88;;;;;;;10.16;41.15;98963.66;4372397;32;33842;-90
2023/03/06 12:47:22;;;;;;;2.75;2.55;;;;;;;10.25;40.48;98957.00;4361427;32;32271;-91
2023/03/06 12:50:23;;;;;;;1.15;1.08;;;;;;;10.37;40.91;98953.69;4368637;32;32844;-91
2023/03/06 12:52:59;;;;;;;1.73;1.62;;;;;;;10.63;40.66;98948.72;4373410;32;33842;-90
2023/03/06 12:55:38;;;;;;;3.90;2.83;;;;;;;10.67;39.85;98950.25;4375109;32;32627;-90
2023/03/06 12:58:28;;;;;;;1.48;1.37;;;;;;;10.82;39.86;98941.44;4371184;32;32780;-91
2023/03/06 13:01:36;;;;;;;5.57;1.80;;;;;;;10.83;40.06;98937.88;4387727;32;32312;-90
2023/03/06 13:04:28;;;;;;;0.57;0.57;;;;;;;10.93;40.06;98943.47;4385042;32;33366;-88
2023/03/06 13:07:06;;;;;;;5.37;1.77;;;;;;;10.99;39.47;98937.81;4367591;32;32640;-88
2023/03/06 13:10:04;;;;;;;3.35;2.62;;;;;;;11.08;40.23;98936.41;4382638;32;34084;-87
2023/03/06 13:12:55;;;;;;;0.22;0.22;;;;;;;11.37;39.27;98932.88;4372071;32;32617;-90
2023/03/06 13:15:35;;;;;;;1.15;1.15;;;;;;;11.23;38.29;98936.34;4372124;32;33427;-92
2023/03/06 13:18:21;;;;;;;7.75;3.72;;;;;;;11.22;39.12;98929.38;4348542;32;32862;-89
2023/03/06 13:20:55;;;;;;;0.70;0.70;;;;;;;11.42;38.39;98914.94;4379011;32;33627;-91
2023/03/06 13:23:28;;;;;;;2.20;1.83;;;;;;;11.11;39.45;98915.09;4368095;32;32748;-91
2023/03/06 13:26:23;;;;;;;1.95;1.85;;;;;;;11.28;38.86;98910.50;4394623;32;33937;-90
2023/03/06 13:29:36;;;;;;;2.30;1.70;;;;;;;11.28;38.68;98907.00;4377297;32;33533;-91
2023/03/06 13:32:17;;;;;;;7.35;0.70;;;;;;;11.16;38.43;98908.59;4386885;32;33069;-89
2023/03/06 13:34:48;;;;;;;0.88;0.88;;;;;;;11.69;38.33;98900.97;4366851;32;33091;-89
2023/03/06 13:37:22;;;;;;;0.85;0.85;;;;;;;11.47;37.55;98897.00;4372268;32;34852;-89
2023/03/06 13:40:00;;;;;;;1.17;1.08;;;;;;;11.08;38.13;98897.66;4381136;32;33752;-88
2023/03/06 13:42:40;;;;;;;0.70;0.70;;;;;;;11.38;37.89;98894.91;4379088;32;33780;-89
2023/03/06 13:48:25;;;;;;;2.08;1.92;;;;;;;10.89;40.76;98889.13;4380614;32;33690;-89
2023/03/06 13:51:23;;;;;;;4.22;2.05;;;;;;;10.44;41.87;98894.38;4362930;32;33049;-89
2023/03/06 13:57:35;;;;;;;0.93;0.93;;;;;;;10.41;42.65;98880.50;4372916;32;32208;-90
2023/03/06 14:00:32;;;;;;;2.17;1.70;;;;;;;9.77;43.62;98881.44;4378376;32;31024;-89
2023/03/06 14:03:30;;;;;;;1.05;1.05;;;;;;;10.08;43.40;98880.59;4377169;32;32487;-89
2023/03/06 14:06:00;;;;;;;1.45;0.82;;;;;;;9.56;45.04;98888.75;4375113;32;32159;-88
2023/03/06 14:08:40;;;;;;;3.22;1.33;;;;;;;9.60;45.35;98880.59;4376412;32;33479;-89